Time;durP1;ratioP1;P1;durP2;ratioP2;P2;SDS_P1;SDS_P2;PMS_P1;PMS_P2;Temp;Humidity;BMP_temperature;BMP_pressure;BME280_temperature;BME280_humidity;BME280_pressure;Samples;Min_cycle;Max_cycle;Signal;HPM_P1;HPM_P2
2021/12/25 00:00:35;;;;;;;;;;;;;;;-0.75;89.64;98669.47;1706276;82;20876;-76
2021/12/25 00:03:01;;;;;;;;;;;;;;;-0.70;89.43;98676.08;1718397;82;21080;-77
2021/12/25 00:05:27;;;;;;;;;;;;;;;-0.79;89.22;98655.12;1726005;82;20233;-76
2021/12/25 00:07:52;;;;;;;;;;;;;;;-0.93;87.77;98699.45;1712076;82;20440;-79
2021/12/25 00:10:18;;;;;;;;;;;;;;;-0.77;87.13;98692.11;1709356;82;20471;-80
2021/12/25 00:12:43;;;;;;;;;;;;;;;-0.74;87.06;98694.45;1712486;82;20166;-75
2021/12/25 00:15:09;;;;;;;;;;;;;;;-0.76;86.27;98691.17;1710918;82;21155;-75
2021/12/25 00:17:35;;;;;;;;;;;;;;;-1.02;85.86;98723.47;1700261;82;20133;-74
2021/12/25 00:20:01;;;;;;;;;;;;;;;-0.98;86.09;98700.25;1720456;82;20134;-77
2021/12/25 00:22:26;;;;;;;;;;;;;;;-1.03;85.82;98726.99;1700611;82;20506;-79
2021/12/25 00:24:52;;;;;;;;;;;;;;;-1.01;84.54;98736.76;1701047;82;20126;-75
2021/12/25 00:30:35;;;;;;;;;;;;;;;-0.85;84.01;98742.91;1707980;82;20071;-74
2021/12/25 00:34:46;;;;;;;;;;;;;;;-0.98;83.61;98806.48;1705024;82;20173;-77
2021/12/25 00:37:12;;;;;;;;;;;;;;;-0.90;82.90;98758.81;1700382;82;20205;-77
2021/12/25 00:39:37;;;;;;;;;;;;;;;-0.95;82.79;98776.45;1708585;82;21084;-75
2021/12/25 00:42:03;;;;;;;;;;;;;;;-1.13;82.46;98797.64;1701350;82;20141;-74
2021/12/25 00:44:29;;;;;;;;;;;;;;;-0.97;82.71;98779.64;1685246;83;20643;-78
2021/12/25 00:46:55;;;;;;;;;;;;;;;-0.91;82.62;98775.29;1684397;83;20241;-76
2021/12/25 00:49:21;;;;;;;;;;;;;;;-0.68;85.36;98798.16;1677344;83;20296;-77
2021/12/25 00:51:46;;;;;;;;;;;;;;;-0.77;83.06;98802.27;1678634;83;20831;-76
2021/12/25 00:54:12;;;;;;;;;;;;;;;-0.75;82.74;98819.81;1653909;86;21157;-76
2021/12/25 00:56:38;;;;;;;;;;;;;;;-0.92;84.12;98822.86;1653524;86;20122;-73
2021/12/25 00:59:03;;;;;;;;;;;;;;;-0.92;84.94;98820.27;1653396;86;20591;-74
2021/12/25 01:01:29;;;;;;;;;;;;;;;-1.09;86.49;98824.97;1654105;86;20175;-76
2021/12/25 01:03:54;;;;;;;;;;;;;;;-1.10;86.70;98837.56;1653352;85;21205;-76
2021/12/25 01:06:20;;;;;;;;;;;;;;;-1.13;87.11;98839.08;1655462;86;20532;-76
2021/12/25 01:08:45;;;;;;;;;;;;;;;-1.09;86.49;98843.11;1654432;86;20149;-78
2021/12/25 01:11:11;;;;;;;;;;;;;;;-1.16;86.83;98862.62;1649929;86;20133;-75
2021/12/25 01:13:43;;;;;;;;;;;;;;;-1.11;86.36;98860.51;1653067;85;21371;-75
2021/12/25 01:16:20;;;;;;;;;;;;;;;-1.25;86.60;98878.02;1649836;86;20150;-74
2021/12/25 01:29:24;;;;;;;;;;;;;;;-1.55;85.14;98913.79;1656233;85;20122;-80
2021/12/25 01:31:58;;;;;;;;;;;;;;;-1.50;85.06;98915.57;1648744;86;20122;-73
2021/12/25 01:34:50;;;;;;;;;;;;;;;-1.52;84.43;98923.92;1655123;86;20187;-80
2021/12/25 01:36:58;;;;;;;;;;;;;;;-1.53;83.82;98930.51;1653790;86;20185;-75
2021/12/25 01:39:27;;;;;;;;;;;;;;;-1.66;84.11;98928.79;1645899;86;20145;-76
2021/12/25 01:49:43;;;;;;;;;;;;;;;-1.79;84.24;98956.93;1651047;86;20611;-74
2021/12/25 01:52:08;;;;;;;;;;;;;;;-1.74;83.65;98967.78;1660309;84;20182;-75
2021/12/25 01:54:34;;;;;;;;;;;;;;;-1.77;83.76;98955.05;1648177;86;20996;-74
2021/12/25 01:56:59;;;;;;;;;;;;;;;-1.83;83.54;98963.61;1651465;86;20209;-75
2021/12/25 01:59:25;;;;;;;;;;;;;;;-1.77;83.12;98970.58;1659346;85;20734;-74
2021/12/25 02:01:51;;;;;;;;;;;;;;;-1.95;83.11;98968.82;1653155;86;20152;-74
2021/12/25 02:04:16;;;;;;;;;;;;;;;-1.88;83.06;98972.17;1651052;86;20441;-72
2021/12/25 02:06:42;;;;;;;;;;;;;;;-2.03;82.51;98978.40;1654414;86;21184;-72
2021/12/25 02:09:07;;;;;;;;;;;;;;;-1.96;82.38;98995.13;1648258;85;20295;-73
2021/12/25 02:11:33;;;;;;;;;;;;;;;-1.85;82.16;99000.42;1653469;85;20147;-79
2021/12/25 02:13:59;;;;;;;;;;;;;;;-2.05;81.93;99028.95;1652638;86;20145;-76
2021/12/25 02:16:36;;;;;;;;;;;;;;;-2.16;81.29;99000.37;1659419;86;20244;-77
2021/12/25 02:19:01;;;;;;;;;;;;;;;-2.21;80.98;99017.48;1657708;86;20163;-74
2021/12/25 02:21:30;;;;;;;;;;;;;;;-2.17;81.06;99022.83;1648144;86;20125;-73
2021/12/25 02:23:51;;;;;;;;;;;;;;;-2.40;80.50;99045.52;1648592;86;20158;-82
2021/12/25 02:26:18;;;;;;;;;;;;;;;-2.42;80.69;99035.27;1655759;86;20502;-77
2021/12/25 02:28:44;;;;;;;;;;;;;;;-2.39;80.52;99018.74;1652244;86;20190;-73
2021/12/25 02:31:11;;;;;;;;;;;;;;;-2.51;80.73;99032.48;1655172;85;21143;-73
2021/12/25 02:33:38;;;;;;;;;;;;;;;-2.74;80.95;99069.67;1655432;85;20203;-75
2021/12/25 02:36:04;;;;;;;;;;;;;;;-2.71;81.23;99068.19;1653274;85;20447;-75
2021/12/25 02:38:30;;;;;;;;;;;;;;;-2.72;81.38;99051.02;1649472;86;20337;-75
2021/12/25 02:40:55;;;;;;;;;;;;;;;-2.72;81.53;99060.05;1648266;86;20460;-80
2021/12/25 02:43:21;;;;;;;;;;;;;;;-2.92;81.41;99061.33;1652992;86;21081;-77
2021/12/25 02:45:46;;;;;;;;;;;;;;;-2.91;81.61;99087.06;1653304;86;20126;-75
2021/12/25 02:48:15;;;;;;;;;;;;;;;-2.97;81.65;99070.66;1650189;86;21183;-75
2021/12/25 02:50:40;;;;;;;;;;;;;;;-2.98;81.67;99093.56;1652992;86;20865;-78
2021/12/25 02:53:07;;;;;;;;;;;;;;;-3.07;81.90;99086.39;1660569;83;20165;-75
2021/12/25 02:55:33;;;;;;;;;;;;;;;-2.97;81.87;99082.28;1683372;83;21184;-81
2021/12/25 02:57:59;;;;;;;;;;;;;;;-3.00;81.92;99117.34;1692110;83;20328;-74
2021/12/25 03:00:27;;;;;;;;;;;;;;;-2.99;82.08;99094.47;1690784;83;20132;-75
2021/12/25 03:02:53;;;;;;;;;;;;;;;-3.10;82.21;99101.59;1688603;83;20570;-75
2021/12/25 03:05:18;;;;;;;;;;;;;;;-3.10;82.37;99104.66;1687748;83;20172;-76
2021/12/25 03:07:44;;;;;;;;;;;;;;;-3.19;82.67;99107.33;1686678;83;21225;-75
2021/12/25 03:10:10;;;;;;;;;;;;;;;-3.30;83.13;99107.98;1684290;83;20154;-75
2021/12/25 03:12:47;;;;;;;;;;;;;;;-3.27;83.42;99116.02;1685584;83;20178;-76
2021/12/25 03:15:14;;;;;;;;;;;;;;;-3.21;83.24;99129.02;1685864;83;20113;-76
2021/12/25 03:17:34;;;;;;;;;;;;;;;-3.32;83.35;99121.94;1691112;83;20574;-76
2021/12/25 03:20:00;;;;;;;;;;;;;;;-3.39;83.74;99125.80;1689576;83;21165;-76
2021/12/25 03:22:26;;;;;;;;;;;;;;;-3.41;82.34;99167.66;1680821;83;20184;-78
2021/12/25 03:24:51;;;;;;;;;;;;;;;-3.52;81.30;99146.36;1696633;83;20172;-74
2021/12/25 03:27:17;;;;;;;;;;;;;;;-3.46;81.40;99135.67;1690838;83;20171;-75
2021/12/25 03:29:43;;;;;;;;;;;;;;;-3.50;80.85;99142.75;1686301;83;20167;-74
2021/12/25 03:32:09;;;;;;;;;;;;;;;-3.64;81.78;99156.94;1692236;83;21157;-79
2021/12/25 03:34:35;;;;;;;;;;;;;;;-3.68;82.55;99157.59;1695702;83;20498;-75
2021/12/25 03:37:00;;;;;;;;;;;;;;;-3.71;83.29;99157.77;1692466;83;20172;-74
2021/12/25 03:39:26;;;;;;;;;;;;;;;-3.82;84.19;99166.60;1690544;83;20201;-76
2021/12/25 03:41:52;;;;;;;;;;;;;;;-3.97;85.32;99175.57;1692914;83;20160;-74
2021/12/25 03:44:17;;;;;;;;;;;;;;;-3.99;85.94;99164.53;1683013;83;21167;-75
2021/12/25 03:46:44;;;;;;;;;;;;;;;-4.02;85.96;99165.17;1687572;83;20196;-73
2021/12/25 03:49:27;;;;;;;;;;;;;;;-4.11;86.47;99175.54;1685091;83;20208;-74
2021/12/25 04:00:04;;;;;;;;;;;;;;;-4.46;86.05;99206.68;1697257;83;20131;-77
2021/12/25 04:02:35;;;;;;;;;;;;;;;-4.42;86.32;99195.30;1692066;83;20451;-74
2021/12/25 04:04:57;;;;;;;;;;;;;;;-4.51;85.95;99203.06;1684436;83;20205;-75
2021/12/25 04:07:48;;;;;;;;;;;;;;;-4.57;85.93;99220.17;1694444;83;20119;-80
2021/12/25 04:09:50;;;;;;;;;;;;;;;-4.61;85.52;99241.03;1684157;83;20111;-74
2021/12/25 04:12:17;;;;;;;;;;;;;;;-4.70;85.63;99214.83;1702965;83;21190;-74
2021/12/25 04:14:42;;;;;;;;;;;;;;;-4.67;85.20;99229.77;1690132;83;20175;-75
2021/12/25 04:17:08;;;;;;;;;;;;;;;-4.76;85.10;99225.46;1685403;83;20194;-74
2021/12/25 04:19:34;;;;;;;;;;;;;;;-4.81;84.99;99226.17;1696191;83;20236;-74
2021/12/25 04:22:04;;;;;;;;;;;;;;;-5.06;85.65;99240.80;1685344;83;21068;-75
2021/12/25 04:24:30;;;;;;;;;;;;;;;-5.08;85.73;99242.17;1693859;83;20290;-77
2021/12/25 04:26:54;;;;;;;;;;;;;;;-5.16;85.24;99252.01;1690063;83;20153;-73
2021/12/25 05:04:22;;;;;;;;;;;;;;;-5.15;82.88;99300.02;1704316;83;20261;-76
2021/12/25 05:06:44;;;;;;;;;;;;;;;-5.16;82.84;99311.67;1698944;83;20187;-73
2021/12/25 05:09:10;;;;;;;;;;;;;;;-5.25;83.02;99310.38;1689024;83;20432;-74
2021/12/25 05:11:35;;;;;;;;;;;;;;;-5.27;83.29;99299.34;1702478;83;20183;-74
2021/12/25 05:14:01;;;;;;;;;;;;;;;-5.36;83.59;99319.95;1695775;83;21093;-82
2021/12/25 05:16:26;;;;;;;;;;;;;;;-5.40;84.00;99304.27;1695477;83;20155;-74
2021/12/25 05:18:53;;;;;;;;;;;;;;;-5.42;84.14;99317.22;1687088;83;21078;-73
2021/12/25 05:21:19;;;;;;;;;;;;;;;-5.50;84.16;99338.63;1701849;83;20169;-76
2021/12/25 05:23:45;;;;;;;;;;;;;;;-5.51;84.62;99317.66;1698431;83;20481;-76
2021/12/25 05:26:11;;;;;;;;;;;;;;;-5.61;85.01;99329.30;1708295;83;21153;-74
2021/12/25 05:28:41;;;;;;;;;;;;;;;-5.63;84.83;99340.12;1706497;83;21344;-73
2021/12/25 05:31:11;;;;;;;;;;;;;;;-5.67;84.95;99334.30;1695696;83;20223;-74
2021/12/25 05:33:37;;;;;;;;;;;;;;;-5.79;85.38;99340.84;1705168;83;20520;-74
2021/12/25 05:36:03;;;;;;;;;;;;;;;-5.72;85.19;99346.98;1702485;83;20175;-75
2021/12/25 05:38:28;;;;;;;;;;;;;;;-5.84;85.40;99349.24;1695262;83;21113;-75
2021/12/25 05:40:54;;;;;;;;;;;;;;;-5.90;85.97;99359.81;1690432;83;20208;-74
2021/12/25 05:43:20;;;;;;;;;;;;;;;-6.08;85.93;99370.51;1692570;83;20140;-73
2021/12/25 05:45:45;;;;;;;;;;;;;;;-6.19;86.55;99362.00;1696738;83;20159;-74
2021/12/25 05:48:11;;;;;;;;;;;;;;;-6.16;86.50;99361.04;1689858;83;20292;-77
2021/12/25 05:50:37;;;;;;;;;;;;;;;-6.07;86.56;99368.80;1698261;83;21174;-76
2021/12/25 05:53:03;;;;;;;;;;;;;;;-6.14;86.09;99374.64;1699478;83;20143;-77
2021/12/25 05:55:29;;;;;;;;;;;;;;;-6.09;85.92;99380.43;1691357;83;20521;-75
2021/12/25 05:57:54;;;;;;;;;;;;;;;-6.21;86.16;99381.80;1689841;83;20134;-75
2021/12/25 06:00:20;;;;;;;;;;;;;;;-6.30;86.30;99379.64;1687149;83;20197;-77
2021/12/25 06:02:46;;;;;;;;;;;;;;;-6.32;86.19;99384.03;1680492;83;21105;-75
2021/12/25 06:05:11;;;;;;;;;;;;;;;-6.46;86.25;99396.63;1684084;83;20227;-74
2021/12/25 06:07:37;;;;;;;;;;;;;;;-6.41;86.30;99403.70;1686299;83;20187;-82
2021/12/25 06:10:06;;;;;;;;;;;;;;;-6.54;86.52;99397.81;1691121;83;20556;-73
2021/12/25 06:12:31;;;;;;;;;;;;;;;-6.54;86.53;99399.09;1695289;83;20175;-74
2021/12/25 06:15:00;;;;;;;;;;;;;;;-6.64;86.58;99396.53;1687264;83;21075;-76
2021/12/25 06:17:24;;;;;;;;;;;;;;;-6.75;87.04;99409.00;1701631;83;20231;-74
2021/12/25 06:19:50;;;;;;;;;;;;;;;-6.74;87.08;99408.09;1652577;83;20155;-73
2021/12/25 06:22:15;;;;;;;;;;;;;;;-6.77;87.08;99415.95;1684508;83;20159;-75
2021/12/25 06:24:43;;;;;;;;;;;;;;;-6.76;86.99;99423.55;1682257;83;20162;-75
2021/12/25 06:27:08;;;;;;;;;;;;;;;-6.88;87.31;99422.81;1690291;83;20131;-74
2021/12/25 06:29:34;;;;;;;;;;;;;;;-6.92;87.33;99433.63;1677639;83;20130;-75
2021/12/25 06:32:00;;;;;;;;;;;;;;;-6.92;87.07;99430.24;1693130;83;20296;-73
2021/12/25 06:34:26;;;;;;;;;;;;;;;-6.99;87.66;99437.80;1693881;83;20505;-73
2021/12/25 06:36:51;;;;;;;;;;;;;;;-7.00;87.71;99439.54;1686308;83;20266;-77
2021/12/25 06:39:17;;;;;;;;;;;;;;;-7.06;88.05;99442.36;1684253;83;21085;-76
2021/12/25 06:41:43;;;;;;;;;;;;;;;-6.92;87.74;99443.91;1681252;83;20154;-73
2021/12/25 06:44:09;;;;;;;;;;;;;;;-6.99;87.63;99452.77;1681843;83;20197;-76
2021/12/25 06:46:35;;;;;;;;;;;;;;;-6.98;87.71;99458.27;1691384;83;20148;-74
2021/12/25 06:49:00;;;;;;;;;;;;;;;-7.17;88.31;99458.64;1686656;83;20162;-79
2021/12/25 06:51:26;;;;;;;;;;;;;;;-7.10;88.20;99454.91;1683016;83;21033;-73
2021/12/25 06:53:51;;;;;;;;;;;;;;;-6.98;87.65;99454.41;1701620;83;20140;-75
2021/12/25 06:56:18;;;;;;;;;;;;;;;-7.28;88.46;99452.19;1689993;83;20776;-73
2021/12/25 06:58:43;;;;;;;;;;;;;;;-7.33;88.63;99455.39;1679404;83;20261;-74
2021/12/25 07:01:09;;;;;;;;;;;;;;;-7.36;88.71;99452.95;1689838;83;20143;-74
2021/12/25 07:03:35;;;;;;;;;;;;;;;-7.33;88.94;99463.09;1689761;83;21041;-78
2021/12/25 07:06:00;;;;;;;;;;;;;;;-7.20;88.50;99462.61;1684120;83;20175;-76
2021/12/25 07:08:26;;;;;;;;;;;;;;;-7.15;88.34;99461.97;1681803;83;20223;-76
2021/12/25 07:10:51;;;;;;;;;;;;;;;-7.19;88.17;99469.39;1695570;83;20195;-76
2021/12/25 07:13:19;;;;;;;;;;;;;;;-7.36;89.11;99476.03;1692254;83;20187;-75
2021/12/25 07:15:45;;;;;;;;;;;;;;;-7.30;89.01;99474.52;1689097;83;20515;-75
2021/12/25 07:18:11;;;;;;;;;;;;;;;-7.09;88.22;99483.53;1685128;83;20132;-75
2021/12/25 07:20:36;;;;;;;;;;;;;;;-7.06;87.97;99484.69;1687785;83;20219;-75
2021/12/25 07:23:02;;;;;;;;;;;;;;;-7.28;88.43;99479.59;1692122;83;20487;-75
2021/12/25 07:25:28;;;;;;;;;;;;;;;-7.27;88.91;99484.66;1703904;83;20160;-83
2021/12/25 07:27:53;;;;;;;;;;;;;;;-7.29;88.88;99488.98;1686040;83;21141;-75
2021/12/25 07:30:19;;;;;;;;;;;;;;;-7.31;88.86;99492.07;1682365;83;20999;-78
2021/12/25 07:32:44;;;;;;;;;;;;;;;-7.32;89.13;99500.65;1694651;83;20132;-75
2021/12/25 07:35:10;;;;;;;;;;;;;;;-7.19;88.35;99506.59;1692461;83;20164;-76
2021/12/25 07:37:36;;;;;;;;;;;;;;;-7.14;88.43;99504.24;1680359;83;20246;-79
2021/12/25 07:40:04;;;;;;;;;;;;;;;-7.17;88.08;99508.67;1692294;83;21090;-78
2021/12/25 07:42:29;;;;;;;;;;;;;;;-7.29;88.28;99510.79;1693987;83;21150;-77
2021/12/25 07:45:02;;;;;;;;;;;;;;;-7.08;87.97;99507.02;1694838;83;20217;-75
2021/12/25 07:47:23;;;;;;;;;;;;;;;-7.17;88.18;99520.21;1678897;83;20184;-78
2021/12/25 07:49:49;;;;;;;;;;;;;;;-7.20;88.09;99512.63;1684452;83;20236;-74
2021/12/25 07:52:15;;;;;;;;;;;;;;;-7.25;87.97;99507.22;1688564;83;21086;-80
2021/12/25 07:54:41;;;;;;;;;;;;;;;-7.32;88.57;99513.93;1698688;83;20142;-74
2021/12/25 07:57:06;;;;;;;;;;;;;;;-7.39;89.14;99521.03;1693786;83;20306;-74
2021/12/25 07:59:32;;;;;;;;;;;;;;;-7.40;89.45;99527.05;1684176;83;20148;-75
2021/12/25 08:01:58;;;;;;;;;;;;;;;-7.30;89.00;99518.12;1692828;83;20165;-75
2021/12/25 08:04:23;;;;;;;;;;;;;;;-7.33;89.30;99522.08;1701788;83;22291;-74
2021/12/25 08:06:49;;;;;;;;;;;;;;;-7.33;89.53;99533.63;1684045;83;20155;-76
2021/12/25 08:09:17;;;;;;;;;;;;;;;-7.27;89.58;99528.27;1686696;83;20207;-77
2021/12/25 08:11:42;;;;;;;;;;;;;;;-7.27;89.27;99534.67;1685089;83;20135;-77
2021/12/25 08:14:07;;;;;;;;;;;;;;;-7.10;89.25;99537.02;1700815;83;20176;-74
2021/12/25 08:16:33;;;;;;;;;;;;;;;-7.11;88.91;99540.50;1684150;83;21148;-74
2021/12/25 08:18:59;;;;;;;;;;;;;;;-7.15;88.96;99538.94;1683389;83;20192;-74
2021/12/25 08:21:24;;;;;;;;;;;;;;;-7.13;89.24;99553.81;1691865;83;20152;-77
2021/12/25 08:23:50;;;;;;;;;;;;;;;-7.07;89.22;99538.18;1688839;83;20152;-78
2021/12/25 08:26:16;;;;;;;;;;;;;;;-6.90;88.67;99544.80;1689831;83;20459;-75
2021/12/25 08:28:41;;;;;;;;;;;;;;;-6.75;88.30;99548.92;1692186;83;21076;-74
2021/12/25 08:31:07;;;;;;;;;;;;;;;-6.92;88.39;99559.40;1692429;83;20472;-74
2021/12/25 08:33:32;;;;;;;;;;;;;;;-6.79;88.72;99557.63;1695619;83;20466;-73
2021/12/25 08:35:58;;;;;;;;;;;;;;;-6.81;88.39;99560.72;1692909;83;20519;-74
2021/12/25 08:38:23;;;;;;;;;;;;;;;-6.76;88.24;99567.78;1700166;83;20211;-76
2021/12/25 08:40:53;;;;;;;;;;;;;;;-6.68;88.12;99572.15;1692806;83;21151;-78
2021/12/25 08:43:24;;;;;;;;;;;;;;;-6.53;87.56;99574.10;1695198;83;20485;-74
2021/12/25 08:45:46;;;;;;;;;;;;;;;-6.44;87.13;99567.77;1687147;83;20148;-74
2021/12/25 08:48:17;;;;;;;;;;;;;;;-6.46;87.04;99567.43;1682407;83;20163;-74
2021/12/25 08:50:51;;;;;;;;;;;;;;;-6.37;87.31;99577.33;1689367;83;20199;-75
2021/12/25 08:53:18;;;;;;;;;;;;;;;-6.19;86.76;99570.14;1695287;83;22098;-78
2021/12/25 08:55:44;;;;;;;;;;;;;;;-6.15;86.56;99574.27;1666997;83;20920;-74
2021/12/25 08:58:09;;;;;;;;;;;;;;;-6.04;86.20;99583.27;1666297;85;20223;-76
2021/12/25 09:00:35;;;;;;;;;;;;;;;-5.98;85.98;99580.41;1654941;85;20476;-77
2021/12/25 09:03:01;;;;;;;;;;;;;;;-5.88;85.93;99573.13;1678263;85;20111;-76
2021/12/25 09:05:27;;;;;;;;;;;;;;;-5.75;85.44;99592.70;1680288;85;21098;-76
2021/12/25 09:07:52;;;;;;;;;;;;;;;-5.82;85.45;99577.54;1656193;85;20360;-74
2021/12/25 09:10:18;;;;;;;;;;;;;;;-5.85;85.51;99585.84;1653306;85;20157;-76
2021/12/25 09:12:45;;;;;;;;;;;;;;;-5.73;85.21;99605.03;1653538;85;20217;-74
2021/12/25 09:15:11;;;;;;;;;;;;;;;-5.80;85.07;99592.44;1665134;85;20207;-73
2021/12/25 09:17:37;;;;;;;;;;;;;;;-5.78;85.39;99598.38;1681969;84;21143;-80
2021/12/25 09:20:04;;;;;;;;;;;;;;;-5.68;85.37;99591.55;1671056;84;20259;-76
2021/12/25 09:22:30;;;;;;;;;;;;;;;-5.67;84.88;99604.77;1654336;85;20157;-80
2021/12/25 09:24:55;;;;;;;;;;;;;;;-5.69;84.77;99593.72;1660949;85;20487;-73
2021/12/25 09:27:21;;;;;;;;;;;;;;;-5.77;85.16;99601.31;1667937;85;20141;-75
2021/12/25 09:29:47;;;;;;;;;;;;;;;-5.60;84.66;99598.47;1649949;85;21108;-73
2021/12/25 09:32:14;;;;;;;;;;;;;;;-5.65;84.61;99597.84;1654041;85;20245;-73
2021/12/25 09:34:39;;;;;;;;;;;;;;;-5.65;84.75;99588.38;1662961;85;20163;-73
2021/12/25 09:37:06;;;;;;;;;;;;;;;-5.45;84.84;99596.97;1668855;85;20134;-75
2021/12/25 09:39:32;;;;;;;;;;;;;;;-5.51;84.47;99594.20;1670150;85;20172;-75
2021/12/25 09:41:58;;;;;;;;;;;;;;;-5.37;83.85;99609.48;1676861;84;21186;-73
2021/12/25 09:44:23;;;;;;;;;;;;;;;-5.29;83.85;99597.11;1674516;85;20172;-77
2021/12/25 09:46:49;;;;;;;;;;;;;;;-5.20;83.86;99600.98;1668851;85;21043;-74
2021/12/25 09:49:14;;;;;;;;;;;;;;;-5.25;83.97;99601.19;1681315;84;20139;-74
2021/12/25 09:51:40;;;;;;;;;;;;;;;-5.03;83.53;99595.06;1680088;85;20264;-74
2021/12/25 09:54:08;;;;;;;;;;;;;;;-5.07;83.21;99605.50;1669205;85;21124;-74
2021/12/25 09:56:35;;;;;;;;;;;;;;;-5.03;83.12;99600.21;1698162;83;20177;-74
2021/12/25 09:59:00;;;;;;;;;;;;;;;-4.97;82.89;99601.22;1699340;83;20166;-74
2021/12/25 10:01:43;;;;;;;;;;;;;;;-4.94;82.75;99599.78;1702100;83;20183;-74
2021/12/25 10:04:11;;;;;;;;;;;;;;;-5.05;82.76;99619.16;1702890;83;20170;-76
2021/12/25 10:06:40;;;;;;;;;;;;;;;-4.79;82.78;99600.36;1693857;83;21727;-74
2021/12/25 10:09:18;;;;;;;;;;;;;;;-4.89;82.55;99608.16;1684420;83;20986;-75
2021/12/25 10:12:03;;;;;;;;;;;;;;;-4.73;82.28;99603.93;1690053;83;20550;-77
2021/12/25 10:14:29;;;;;;;;;;;;;;;-4.76;82.21;99609.23;1707512;83;20224;-78
2021/12/25 10:16:55;;;;;;;;;;;;;;;-4.68;82.03;99611.44;1708584;83;20196;-79
2021/12/25 10:19:23;;;;;;;;;;;;;;;-4.76;82.10;99605.36;1699409;83;21230;-83
2021/12/25 10:21:50;;;;;;;;;;;;;;;-4.72;82.00;99607.36;1703191;83;20402;-77
2021/12/25 10:24:28;;;;;;;;;;;;;;;-4.70;82.11;99623.57;1685261;83;20171;-76
2021/12/25 10:26:46;;;;;;;;;;;;;;;-4.83;82.28;99607.87;1695728;83;20208;-75
2021/12/25 10:29:19;;;;;;;;;;;;;;;-4.70;82.61;99597.34;1687157;83;36120;-78
2021/12/25 10:31:44;;;;;;;;;;;;;;;-4.63;82.45;99603.50;1696794;83;22546;-76
2021/12/25 10:34:18;;;;;;;;;;;;;;;-4.67;82.19;99609.72;1707742;83;20136;-76
2021/12/25 10:36:43;;;;;;;;;;;;;;;-4.65;82.28;99625.92;1693642;83;20513;-77
2021/12/25 10:39:20;;;;;;;;;;;;;;;-4.56;82.22;99622.91;1690454;83;20199;-76
2021/12/25 10:42:02;;;;;;;;;;;;;;;-4.43;82.12;99612.37;1691732;83;20544;-75
2021/12/25 10:44:31;;;;;;;;;;;;;;;-4.36;81.72;99615.05;1689966;83;20189;-76
2021/12/25 10:47:03;;;;;;;;;;;;;;;-4.25;81.68;99615.81;1688455;83;20147;-76
2021/12/25 10:49:47;;;;;;;;;;;;;;;-4.40;81.26;99617.85;1684800;83;20180;-76
2021/12/25 10:52:26;;;;;;;;;;;;;;;-4.30;81.53;99610.50;1701302;83;20174;-77
2021/12/25 10:54:58;;;;;;;;;;;;;;;-4.17;80.98;99610.28;1705547;83;20614;-77
2021/12/25 10:57:34;;;;;;;;;;;;;;;-4.21;80.64;99613.91;1694360;83;22445;-77
2021/12/25 11:00:00;;;;;;;;;;;;;;;-4.14;80.82;99615.29;1690761;83;20820;-78
2021/12/25 11:02:39;;;;;;;;;;;;;;;-4.04;80.75;99624.25;1687496;83;20152;-78
2021/12/25 11:05:16;;;;;;;;;;;;;;;-4.03;80.53;99619.45;1694543;83;20157;-79
2021/12/25 11:07:42;;;;;;;;;;;;;;;-3.97;80.54;99620.44;1699106;83;20200;-79
2021/12/25 11:10:10;;;;;;;;;;;;;;;-3.99;80.72;99630.00;1696769;83;20982;-75
2021/12/25 11:12:36;;;;;;;;;;;;;;;-4.05;80.24;99638.51;1688716;83;20259;-76
2021/12/25 11:15:20;;;;;;;;;;;;;;;-4.06;80.52;99628.63;1690864;83;20274;-82
2021/12/25 11:17:50;;;;;;;;;;;;;;;-3.93;80.30;99630.16;1699685;83;21007;-77
2021/12/25 11:20:21;;;;;;;;;;;;;;;-4.04;80.63;99629.84;1694842;83;20195;-84
2021/12/25 11:22:50;;;;;;;;;;;;;;;-3.94;80.35;99626.38;1693670;83;20219;-78
2021/12/25 11:25:16;;;;;;;;;;;;;;;-3.93;80.09;99631.89;1697670;83;20168;-74
2021/12/25 11:27:42;;;;;;;;;;;;;;;-4.10;80.12;99633.58;1688354;83;20652;-78
2021/12/25 11:30:08;;;;;;;;;;;;;;;-4.03;80.21;99625.89;1704042;83;20121;-78
2021/12/25 11:32:34;;;;;;;;;;;;;;;-4.04;80.02;99624.68;1708687;83;20124;-78
2021/12/25 11:34:59;;;;;;;;;;;;;;;-4.00;79.97;99623.16;1701866;83;22258;-77
2021/12/25 11:37:27;;;;;;;;;;;;;;;-3.78;79.88;99627.25;1703483;83;20120;-80
2021/12/25 11:39:53;;;;;;;;;;;;;;;-3.79;79.68;99618.69;1707564;83;20240;-78
2021/12/25 11:42:20;;;;;;;;;;;;;;;-3.81;79.74;99627.40;1706572;83;20181;-77
2021/12/25 11:44:51;;;;;;;;;;;;;;;-3.69;79.65;99628.06;1699673;83;20502;-78
2021/12/25 11:47:40;;;;;;;;;;;;;;;-3.76;79.39;99638.78;1701530;83;20150;-78
2021/12/25 11:50:09;;;;;;;;;;;;;;;-3.75;79.19;99623.22;1698831;83;20218;-77
2021/12/25 11:52:43;;;;;;;;;;;;;;;-3.58;79.95;99627.98;1695289;83;20228;-78
2021/12/25 11:55:29;;;;;;;;;;;;;;;-3.63;78.83;99630.33;1669582;83;20476;-79
2021/12/25 12:00:34;;;;;;;;;;;;;;;-3.69;78.48;99650.00;1691723;83;20175;-79
2021/12/25 12:03:00;;;;;;;;;;;;;;;-3.70;78.53;99628.14;1667765;83;20204;-79
2021/12/25 12:05:27;;;;;;;;;;;;;;;-3.86;78.68;99629.39;1688595;83;20200;-78
2021/12/25 12:08:07;;;;;;;;;;;;;;;-3.77;78.55;99630.21;1695787;83;20535;-81
2021/12/25 12:10:59;;;;;;;;;;;;;;;-3.66;78.70;99632.25;1698695;83;20209;-82
2021/12/25 12:13:27;;;;;;;;;;;;;;;-3.69;78.49;99625.48;1695628;83;20473;-80
2021/12/25 12:15:54;;;;;;;;;;;;;;;-3.75;78.34;99625.80;1697921;83;20694;-79
2021/12/25 12:18:31;;;;;;;;;;;;;;;-3.69;78.32;99631.11;1696035;83;20196;-78
2021/12/25 12:21:05;;;;;;;;;;;;;;;-3.72;78.23;99644.99;1695752;83;20180;-79
2021/12/25 12:23:47;;;;;;;;;;;;;;;-3.74;78.13;99637.80;1690679;83;20191;-80
2021/12/25 12:26:09;;;;;;;;;;;;;;;-3.71;78.07;99628.61;1696159;83;20148;-80
2021/12/25 12:28:45;;;;;;;;;;;;;;;-3.68;77.72;99624.59;1695331;83;20132;-78
2021/12/25 12:31:34;;;;;;;;;;;;;;;-3.72;77.73;99632.09;1697402;83;20181;-81
2021/12/25 12:34:00;;;;;;;;;;;;;;;-3.64;77.72;99631.70;1691214;83;20227;-79
2021/12/25 12:36:26;;;;;;;;;;;;;;;-3.50;77.57;99637.45;1700059;83;20255;-77
2021/12/25 12:38:56;;;;;;;;;;;;;;;-3.30;77.19;99626.91;1703447;83;20530;-78
2021/12/25 12:41:27;;;;;;;;;;;;;;;-3.29;77.12;99633.74;1695293;83;20140;-78
2021/12/25 12:44:08;;;;;;;;;;;;;;;-3.37;77.14;99635.05;1698553;83;20173;-75
2021/12/25 12:46:55;;;;;;;;;;;;;;;-3.20;76.69;99638.04;1693106;83;20192;-75
2021/12/25 12:49:31;;;;;;;;;;;;;;;-3.07;76.40;99640.36;1698385;83;20173;-77
2021/12/25 12:52:19;;;;;;;;;;;;;;;-3.08;76.06;99648.57;1703787;83;21193;-76
2021/12/25 12:54:56;;;;;;;;;;;;;;;-3.11;75.96;99656.92;1697197;83;20494;-78
2021/12/25 12:57:29;;;;;;;;;;;;;;;-2.96;75.91;99639.78;1695408;83;20187;-80
2021/12/25 12:59:56;;;;;;;;;;;;;;;-2.92;75.83;99649.87;1696526;83;20207;-80
2021/12/25 13:02:24;;;;;;;;;;;;;;;-2.98;75.38;99664.41;1693724;83;21135;-80
2021/12/25 13:04:58;;;;;;;;;;;;;;;-3.07;75.34;99661.02;1693985;83;21418;-79
2021/12/25 13:07:27;;;;;;;;;;;;;;;-2.98;75.17;99660.53;1701988;83;20238;-81
2021/12/25 13:10:20;;;;;;;;;;;;;;;-2.98;74.95;99662.26;1696336;83;20154;-80
2021/12/25 13:12:48;;;;;;;;;;;;;;;-2.96;75.30;99665.61;1689642;83;20664;-79
2021/12/25 13:15:19;;;;;;;;;;;;;;;-2.97;75.06;99672.98;1688289;83;20176;-79
2021/12/25 13:17:47;;;;;;;;;;;;;;;-3.01;75.18;99677.95;1686672;83;21098;-80
2021/12/25 13:20:13;;;;;;;;;;;;;;;-3.11;75.50;99669.84;1691014;83;20175;-79
2021/12/25 13:22:38;;;;;;;;;;;;;;;-3.04;75.19;99678.94;1695347;83;20457;-82
2021/12/25 13:25:06;;;;;;;;;;;;;;;-3.11;75.74;99693.08;1695081;83;21037;-81
2021/12/25 13:27:32;;;;;;;;;;;;;;;-2.92;75.08;99696.80;1700992;83;20243;-81
2021/12/25 13:30:06;;;;;;;;;;;;;;;-2.95;75.34;99686.20;1690727;83;20723;-84
2021/12/25 13:32:32;;;;;;;;;;;;;;;-3.02;75.28;99681.44;1700069;83;20156;-87
2021/12/25 13:34:58;;;;;;;;;;;;;;;-3.01;75.35;99698.62;1697991;83;20450;-85
2021/12/25 13:37:23;;;;;;;;;;;;;;;-2.96;75.35;99694.86;1695908;83;20245;-88
2021/12/25 13:39:49;;;;;;;;;;;;;;;-3.01;75.31;99690.87;1702012;83;20180;-79
2021/12/25 13:42:16;;;;;;;;;;;;;;;-2.90;75.38;99691.95;1702428;83;21075;-81
2021/12/25 13:44:42;;;;;;;;;;;;;;;-2.74;74.63;99688.55;1692536;83;20510;-81
2021/12/25 13:47:17;;;;;;;;;;;;;;;-2.72;74.59;99687.55;1692469;83;20246;-83
2021/12/25 13:49:45;;;;;;;;;;;;;;;-2.77;74.48;99693.88;1695826;83;20180;-85
2021/12/25 13:52:15;;;;;;;;;;;;;;;-2.73;74.11;99701.84;1697009;83;20167;-79
2021/12/25 13:54:43;;;;;;;;;;;;;;;-2.84;74.17;99697.69;1701089;83;21895;-79
2021/12/25 13:57:09;;;;;;;;;;;;;;;-2.84;74.60;99711.47;1699332;83;20585;-86
2021/12/25 13:59:35;;;;;;;;;;;;;;;-2.76;74.18;99711.06;1694294;83;20471;-81